Form 90 Radio Report Summary
Download Report Download Report to Microsoft Excel
Main Project Location Date Precip Precip Form Weather Pool Pool Tendency Gate 1 Gate 2 Gate 3 Gate 4 Gate 5 Gate 6 Gate 7 Gate 8 Tailwater Outflow Index 1 Stage Index 1 Flow Index 2 Stage Index 2 Flow Temp Snow Depth Comments
Union Village Dam 12/07/2022 08:30 am 0.49 -- -- -- -- 18.47 -- -- 2.0 2.0             7.69 490             -
North Hartland Dam 12/08/2022 07:00 am 0.12 -- -- -- -- 37.69 -- -- 10.0 10.0 10.0 1.0 0.0       4.33 969             -
North Springfield Dam 12/08/2022 07:00 am 0.17 -- -- -- -- 17.41 -- -- 0.5 8.0 0.5           4.08 881             -
Ball Mountain Dam 12/08/2022 03:15 pm   -- -- -- -- 65.38 -- -- 9.9 5.0 1.2 2.0         0.00 1428             Gc
Townshend Dam 12/08/2022 03:30 pm   -- -- -- -- 29.71 -- -- 0.0 14.4 9.9 2.0         7.20 2882             Gc
Surry Mountain Dam 12/08/2022 07:00 am 0.06 -- -- -- -- 19.26 -- -- 2.0 2.0 2.0 10.0         6.94 511             Rain
Otter Brook Dam 12/08/2022 07:00 am 0.19 -- -- -- -- 22.97 -- -- 0.0 3.0 0.0           7.21 212             -
Birch Hill Dam 12/08/2022 11:30 am   -- -- -- -- 4.49 -- -- 3.0 3.0 3.0 3.0         2.86 568             G/C - Motor Reinstalled
Tully Dam 12/08/2022 12:30 pm   -- -- -- -- 13.76 -- -- 1.2 1.2             3.79 199             G/C
Barre Falls Dam 12/08/2022 07:00 am 0.09 Rain Clear 778.24 Rising 0.3 0.3             3.26 67         43   Rain
Knightville Dam 12/08/2022 07:00 am 0.04 -- -- -- -- 19.05 -- -- 3.0 3.0 3.0           5.00 1120             Rain
Littleville Dam 12/08/2022 07:00 am 0.03 -- -- -- -- 521.53 -- -- 2.0 2.0             3.46 343             -
Colebrook Dam 12/08/2022 08:45 am   -- -- -- -- 700.80 -- -- 0.0 1.0 0.0           4.10 210 4.26 444 4.10 247     Gate Change Per Mdc
Franklin Falls Dam 12/08/2022 07:00 am 0.18 Rain Light Rain 313.60 Rising Slowly 10.0 10.0 10.0 10.0 10.0 10.0 10.0 10.0 0.00 5842 5.05 5229 8.12 6287 42 0.00 Manual Tile Gauge Reading
Blackwater Dam 12/08/2022 10:15 am   -- -- -- -- 523.42 -- -- 4.0 4.0 4.0           4.36 568             Raised To 4s.
Edward Macdowell Dam 12/08/2022 08:30 am   -- -- -- -- 914.07 -- -- 3.0 0.9 0.9           4.08 238             Gc
Hopkinton Dam 12/08/2022 08:30 am   -- -- -- -- 384.90 -- -- 1.8 1.8 1.8 1.8 8.0 8.0     4.62 2050             Gate Change
Everett Dam 12/08/2022 07:00 am 0.07 Rain Clear 342.10 Rising Slowly 0.0 3.0 0.0           6.02 21             -
West Thompson Dam 12/08/2022 07:00 am 0.43 None Clear 16.23 Steady 2.0 5.0 1.0           2.72 660         42 0.00 -
Mansfield Hollow Dam 12/08/2022 09:30 am   None Clear 19.35 -- -- 3.0 2.0 3.0 0.0 0.0       0.00 633             Gate Change
East Brimfield Dam 12/08/2022 07:00 am   Rain Clear 13.93 Steady 1.0 1.0             3.82 155         45 0.00 Rain
Westville Dam 12/08/2022 07:00 am 0.23 -- -- -- -- 12.17 -- -- 0.0 5.0 0.0           4.48 282             Rain
Buffumville Dam 12/08/2022 07:00 am 0.31 Rain Clear 8.71 Rising 0.5 1.0 0.5           3.15 51 5.83 262     46 0.00 -
Hodges Village Dam 12/08/2022 07:00 am 0.48 Rain Clear 4.84 Rising Slowly 2.0 2.0             1.92 116         46 0.00 -
West Hill Dam 12/07/2022 07:00 am 0.69 Rain Rain 2.72 Rising Slowly 2.0 2.0 2.0           1.82 34         52   Storm Total-More Forecast
Woonsocket Falls Dam 12/02/2022 07:00 am   -- -- -- -- 0.57 -- -- 0.0 0.0 0.0 0.0         2.90 908             -
Thomaston Dam 12/08/2022 02:45 pm   -- -- -- -- 7.08 -- -- 3.0 3.0             2.99 422             Gate Change Per Rrt
Black Rock Dam 12/08/2022 07:00 am 0.02 Rain Clear 27.62 Falling Slowly 3.0 0.0             1.82 58         43   -
Hop Brook Dam 12/08/2022 12:30 pm   -- -- -- -- 15.88 -- -- 0.8 3.0             2.42 67             Gate Change
Report Generated on 09-DEC-2022 08:03:48